createdAt,value
2022-11-08T00:02:23.507Z,1.42
2022-11-08T00:04:50.252Z,2.00
2022-11-08T00:07:35.389Z,1.77
2022-11-08T00:10:20.663Z,1.77
2022-11-08T00:13:05.529Z,1.52
2022-11-08T00:15:38.750Z,1.80
2022-11-08T00:18:07.184Z,1.90
2022-11-08T00:20:35.206Z,1.63
2022-11-08T00:23:02.287Z,1.55
2022-11-08T00:25:28.928Z,2.22
2022-11-08T00:27:55.435Z,1.85
2022-11-08T00:30:22.079Z,2.05
2022-11-08T00:32:48.641Z,1.85
2022-11-08T00:35:15.260Z,1.60
2022-11-08T00:37:41.814Z,1.80
2022-11-08T00:40:08.935Z,2.15
2022-11-08T00:42:35.529Z,2.08
2022-11-08T00:45:02.207Z,1.50
2022-11-08T00:47:28.715Z,1.85
2022-11-08T00:49:55.550Z,2.03
2022-11-08T00:52:22.131Z,1.83
2022-11-08T00:54:48.723Z,2.35
2022-11-08T00:57:15.310Z,2.13
2022-11-08T00:59:41.986Z,1.98
2022-11-08T01:02:08.685Z,1.90
2022-11-08T01:04:35.328Z,1.88
2022-11-08T01:07:01.967Z,1.90
2022-11-08T01:09:28.744Z,1.85
2022-11-08T01:11:55.153Z,1.77
2022-11-08T01:14:21.585Z,1.95
2022-11-08T01:16:48.068Z,1.80
2022-11-08T01:19:15.732Z,1.40
2022-11-08T01:21:42.126Z,1.80
2022-11-08T01:24:08.681Z,1.65
2022-11-08T01:26:35.162Z,2.08
2022-11-08T01:29:01.610Z,2.00
2022-11-08T01:31:30.684Z,2.63
2022-11-08T01:33:58.245Z,1.85
2022-11-08T01:36:26.984Z,2.60
2022-11-08T01:38:54.766Z,2.40
2022-11-08T01:41:23.561Z,2.10
2022-11-08T01:43:59.491Z,1.92
2022-11-08T01:46:41.666Z,2.17
2022-11-08T01:49:22.870Z,2.08
2022-11-08T01:52:07.944Z,2.33
2022-11-08T01:54:43.184Z,2.30
2022-11-08T01:57:14.696Z,2.08
2022-11-08T01:59:45.303Z,1.95
2022-11-08T02:02:13.381Z,2.83
2022-11-08T02:04:42.309Z,2.03
2022-11-08T02:07:11.128Z,2.55
2022-11-08T02:09:40.042Z,2.22
2022-11-08T02:12:08.590Z,3.00
2022-11-08T02:14:37.497Z,2.20
2022-11-08T02:17:04.896Z,2.08
2022-11-08T02:19:44.667Z,2.47
2022-11-08T02:22:30.432Z,1.98
2022-11-08T02:25:00.518Z,1.92
2022-11-08T02:27:27.362Z,2.53
2022-11-08T02:29:55.585Z,2.10
2022-11-08T02:32:22.959Z,2.72
2022-11-08T02:34:54.068Z,2.28
2022-11-08T02:37:21.636Z,2.60
2022-11-08T02:39:48.439Z,2.75
2022-11-08T02:42:18.538Z,2.00
2022-11-08T02:44:46.513Z,2.30
2022-11-08T02:47:13.449Z,1.95
2022-11-08T02:49:40.038Z,2.13
2022-11-08T02:52:06.667Z,2.97
2022-11-08T02:54:33.095Z,1.98
2022-11-08T02:56:59.675Z,2.08
2022-11-08T02:59:26.136Z,2.10
2022-11-08T03:01:52.728Z,2.03
2022-11-08T03:04:19.195Z,2.28
2022-11-08T03:06:45.656Z,2.03
2022-11-08T03:09:13.846Z,2.17
2022-11-08T03:11:40.260Z,2.70
2022-11-08T03:14:06.781Z,2.33
2022-11-08T03:16:33.308Z,1.92
2022-11-08T03:19:00.316Z,2.13
2022-11-08T03:21:26.759Z,2.13
2022-11-08T03:23:53.291Z,2.28
2022-11-08T03:26:19.706Z,2.15
2022-11-08T03:28:46.110Z,2.28
2022-11-08T03:31:12.549Z,2.63
2022-11-08T03:33:39.416Z,2.17
2022-11-08T03:36:06.492Z,2.03
2022-11-08T03:38:33.059Z,2.03
2022-11-08T03:40:59.496Z,2.22
2022-11-08T03:43:26.692Z,2.05
2022-11-08T03:45:53.265Z,2.30
2022-11-08T03:48:20.230Z,1.95
2022-11-08T03:50:47.118Z,2.13
2022-11-08T03:53:13.501Z,2.03
2022-11-08T03:55:39.937Z,2.08
2022-11-08T03:58:06.329Z,1.83
2022-11-08T04:00:32.933Z,2.05
2022-11-08T04:03:03.886Z,2.05
2022-11-08T04:05:32.508Z,2.17
2022-11-08T04:08:01.090Z,1.88
2022-11-08T04:10:27.695Z,2.20
2022-11-08T04:13:12.554Z,1.67
2022-11-08T04:15:39.431Z,2.38
2022-11-08T04:18:24.426Z,2.00
2022-11-08T04:21:09.787Z,2.00
2022-11-08T04:23:37.534Z,1.70
2022-11-08T04:26:08.474Z,2.05
2022-11-08T04:28:37.699Z,2.40
2022-11-08T04:31:10.683Z,1.83
2022-11-08T04:33:37.424Z,1.67
2022-11-08T04:36:06.811Z,1.52
2022-11-08T04:38:33.662Z,1.67
2022-11-08T04:41:23.996Z,1.77
2022-11-08T04:43:52.852Z,2.28
2022-11-08T04:46:24.776Z,1.65
2022-11-08T04:48:54.641Z,1.75
2022-11-08T04:51:29.644Z,1.42
2022-11-08T04:53:58.208Z,1.98
2022-11-08T04:56:25.776Z,1.83
2022-11-08T04:58:58.664Z,1.73
2022-11-08T05:01:28.071Z,1.52
2022-11-08T05:03:55.129Z,2.08
2022-11-08T05:06:27.824Z,2.08
2022-11-08T05:08:55.836Z,2.00
2022-11-08T05:11:24.345Z,1.83
2022-11-08T05:13:51.878Z,2.00
2022-11-08T05:16:24.154Z,1.80
2022-11-08T05:18:51.042Z,1.92
2022-11-08T05:21:38.446Z,1.92
2022-11-08T05:24:06.557Z,1.90
2022-11-08T05:26:34.833Z,1.33
2022-11-08T05:29:01.359Z,1.25
2022-11-08T05:31:27.867Z,1.95
2022-11-08T05:33:54.418Z,1.73
2022-11-08T05:36:20.900Z,1.80
2022-11-08T05:38:47.595Z,1.67
2022-11-08T05:41:16.540Z,1.50
2022-11-08T05:43:45.521Z,1.63
2022-11-08T05:46:12.018Z,1.20
2022-11-08T05:48:38.658Z,1.42
2022-11-08T05:51:05.152Z,1.55
2022-11-08T05:53:31.647Z,1.45
2022-11-08T05:56:03.643Z,1.55
2022-11-08T05:58:32.457Z,1.65
2022-11-08T06:01:03.711Z,1.63
2022-11-08T06:03:31.163Z,1.45
2022-11-08T06:06:05.678Z,1.70
2022-11-08T06:08:34.923Z,1.58
2022-11-08T06:11:05.840Z,1.42
2022-11-08T06:16:02.483Z,1.85
2022-11-08T06:18:30.609Z,2.10
2022-11-08T06:21:05.162Z,2.03
2022-11-08T06:23:32.079Z,1.67
2022-11-08T06:25:59.212Z,1.80
2022-11-08T06:28:25.868Z,2.40
2022-11-08T06:30:54.010Z,1.77
2022-11-08T06:33:21.512Z,1.77
2022-11-08T06:35:48.178Z,1.83
2022-11-08T06:38:14.577Z,1.70
2022-11-08T06:40:42.660Z,1.70
2022-11-08T06:43:14.956Z,1.52
2022-11-08T06:45:44.616Z,1.67
2022-11-08T06:48:11.023Z,1.67
2022-11-08T06:50:37.901Z,1.65
2022-11-08T06:53:07.087Z,1.80
2022-11-08T06:55:35.232Z,1.48
2022-11-08T06:58:02.573Z,1.60
2022-11-08T07:00:29.534Z,2.15
2022-11-08T07:02:58.792Z,1.92
2022-11-08T07:05:26.747Z,1.67
2022-11-08T07:07:54.023Z,1.55
2022-11-08T07:10:22.442Z,1.80
2022-11-08T07:12:50.783Z,1.58
2022-11-08T07:15:17.510Z,1.52
2022-11-08T07:17:43.908Z,1.60
2022-11-08T07:20:11.086Z,1.65
2022-11-08T07:22:37.491Z,1.85
2022-11-08T07:25:04.195Z,2.00
2022-11-08T07:27:30.616Z,1.80
2022-11-08T07:29:57.188Z,1.98
2022-11-08T07:32:23.652Z,2.17
2022-11-08T07:34:50.159Z,1.88
2022-11-08T07:37:16.565Z,1.58
2022-11-08T07:39:43.356Z,1.70
2022-11-08T07:42:09.797Z,1.95
2022-11-08T07:44:36.228Z,2.10
2022-11-08T07:47:02.728Z,1.73
2022-11-08T07:49:29.254Z,1.75
2022-11-08T07:51:55.606Z,1.77
2022-11-08T07:54:22.024Z,1.58
2022-11-08T07:56:48.417Z,1.58
2022-11-08T07:59:15.502Z,1.85
2022-11-08T08:01:42.052Z,1.65
2022-11-08T08:04:09.434Z,1.95
2022-11-08T08:06:35.957Z,1.60
2022-11-08T08:09:02.760Z,2.00
2022-11-08T08:11:33.448Z,1.42
2022-11-08T08:14:00.182Z,1.52
2022-11-08T08:16:26.591Z,1.60
2022-11-08T08:18:56.377Z,1.50
2022-11-08T08:21:23.488Z,1.48
2022-11-08T08:23:49.883Z,1.58
2022-11-08T08:26:16.333Z,1.80
2022-11-08T08:28:42.801Z,1.63
2022-11-08T08:31:09.301Z,1.42
2022-11-08T08:33:37.317Z,1.90
2022-11-08T08:36:04.312Z,1.80
2022-11-08T08:38:32.313Z,1.42
2022-11-08T08:40:59.304Z,1.73
2022-11-08T08:43:27.686Z,1.52
2022-11-08T08:45:54.584Z,1.52
2022-11-08T08:48:21.306Z,1.70
2022-11-08T08:50:48.324Z,1.48
2022-11-08T08:53:15.438Z,1.67
2022-11-08T08:55:42.812Z,1.42
2022-11-08T08:58:10.924Z,2.00
2022-11-08T09:03:24.213Z,1.50
2022-11-08T09:05:50.612Z,1.45
2022-11-08T09:08:17.101Z,1.33
2022-11-08T09:10:43.689Z,1.80
2022-11-08T09:13:10.403Z,1.50
2022-11-08T09:15:36.940Z,1.33
2022-11-08T09:18:03.481Z,1.65
2022-11-08T09:20:30.072Z,1.70
2022-11-08T09:23:01.928Z,1.63
2022-11-08T09:25:28.462Z,1.67
2022-11-08T09:27:55.265Z,1.33
2022-11-08T09:30:21.753Z,1.52
2022-11-08T09:33:03.586Z,1.88
2022-11-08T09:35:31.051Z,1.92
2022-11-08T09:37:58.398Z,1.52
2022-11-08T09:40:38.413Z,2.33
2022-11-08T09:43:14.226Z,2.17
2022-11-08T09:45:45.494Z,1.60
2022-11-08T09:48:35.582Z,2.13
2022-11-08T09:51:17.048Z,1.83
2022-11-08T09:53:51.941Z,1.73
2022-11-08T09:56:21.445Z,1.60
2022-11-08T09:59:12.871Z,1.60
2022-11-08T10:01:40.100Z,1.83
2022-11-08T10:04:19.416Z,1.50
2022-11-08T10:06:56.849Z,1.83
2022-11-08T10:09:48.663Z,1.70
2022-11-08T10:12:25.447Z,2.20
2022-11-08T10:15:29.418Z,1.48
2022-11-08T10:18:21.147Z,1.80
2022-11-08T10:21:05.317Z,1.83
2022-11-08T10:23:57.606Z,1.35
2022-11-08T10:26:37.310Z,1.52
2022-11-08T10:29:09.620Z,1.90
2022-11-08T10:31:39.641Z,1.77
2022-11-08T10:34:16.729Z,1.55
2022-11-08T10:36:54.490Z,1.75
2022-11-08T10:39:27.872Z,1.30
2022-11-08T10:42:23.785Z,1.65
2022-11-08T10:44:50.248Z,1.20
2022-11-08T10:47:27.307Z,1.05
2022-11-08T10:49:59.582Z,1.50
2022-11-08T10:52:39.778Z,1.40
2022-11-08T10:55:23.865Z,1.55
2022-11-08T10:57:50.268Z,2.17
2022-11-08T11:00:20.656Z,1.45
2022-11-08T11:03:01.380Z,1.60
2022-11-08T11:05:32.309Z,1.02
2022-11-08T11:08:02.007Z,1.23
2022-11-08T11:10:29.916Z,1.45
2022-11-08T11:13:12.064Z,1.67
2022-11-08T11:16:00.616Z,1.10
2022-11-08T11:18:39.203Z,1.38
2022-11-08T11:21:19.020Z,1.42
2022-11-08T11:23:47.172Z,1.38
2022-11-08T11:26:32.731Z,1.23
2022-11-08T11:29:05.646Z,1.15
2022-11-08T11:31:36.612Z,1.42
2022-11-08T11:34:18.270Z,1.35
2022-11-08T11:36:52.293Z,1.48
2022-11-08T11:39:24.935Z,1.85
2022-11-08T11:42:43.939Z,1.77
2022-11-08T11:45:26.064Z,1.52
2022-11-08T11:47:57.720Z,1.98
2022-11-08T11:50:39.506Z,1.40
2022-11-08T11:53:12.739Z,2.17
2022-11-08T11:55:45.089Z,1.70
2022-11-08T11:58:26.806Z,1.77
2022-11-08T12:01:03.743Z,1.33
2022-11-08T12:06:49.549Z,1.40
2022-11-08T12:09:25.217Z,1.58
2022-11-08T12:12:03.655Z,1.10
2022-11-08T12:14:30.002Z,1.52
2022-11-08T12:17:13.573Z,1.42
2022-11-08T12:20:07.196Z,1.35
2022-11-08T12:22:36.401Z,1.40
2022-11-08T12:25:17.976Z,1.52
2022-11-08T12:27:53.436Z,1.45
2022-11-08T12:30:30.906Z,1.45
2022-11-08T12:33:18.897Z,1.50
2022-11-08T12:35:58.815Z,1.23
2022-11-08T12:38:42.356Z,1.45
2022-11-08T12:41:49.238Z,1.35
2022-11-08T12:44:33.949Z,1.45
2022-11-08T12:47:29.140Z,1.25
2022-11-08T12:50:09.546Z,1.42
2022-11-08T12:52:45.133Z,1.30
2022-11-08T12:55:40.062Z,1.10
2022-11-08T12:58:23.150Z,1.33
2022-11-08T13:03:37.142Z,1.42
2022-11-08T13:06:37.455Z,1.38
2022-11-08T13:09:18.912Z,1.42
2022-11-08T13:12:09.981Z,1.23
2022-11-08T13:14:41.067Z,1.20
2022-11-08T13:17:20.426Z,1.02
2022-11-08T13:19:46.745Z,1.50
2022-11-08T13:22:31.411Z,1.42
2022-11-08T13:25:03.226Z,1.10
2022-11-08T13:27:36.555Z,1.30
2022-11-08T13:30:31.920Z,1.38
2022-11-08T13:33:10.125Z,1.23
2022-11-08T13:36:01.206Z,1.75
2022-11-08T13:38:30.670Z,1.38
2022-11-08T13:41:17.662Z,1.40
2022-11-08T13:43:44.962Z,1.35
2022-11-08T13:46:20.597Z,1.70
2022-11-08T13:49:03.363Z,1.25
2022-11-08T13:51:37.597Z,1.30
2022-11-08T13:54:28.356Z,1.45
2022-11-08T13:57:02.013Z,1.50
2022-11-08T13:59:31.744Z,1.52
2022-11-08T14:02:00.690Z,1.50
2022-11-08T14:04:33.497Z,1.20
2022-11-08T14:07:05.739Z,1.98
2022-11-08T14:09:59.100Z,1.35
2022-11-08T14:12:33.947Z,1.60
2022-11-08T14:15:17.178Z,1.30
2022-11-08T14:18:13.598Z,1.50
2022-11-08T14:20:42.711Z,1.27
2022-11-08T14:23:14.924Z,1.73
2022-11-08T14:25:46.551Z,1.50
2022-11-08T14:28:33.541Z,1.50
2022-11-08T14:31:02.084Z,1.52
2022-11-08T14:33:30.744Z,1.42
2022-11-08T14:36:08.929Z,1.70
2022-11-08T14:38:37.560Z,1.67
2022-11-08T14:41:06.025Z,1.60
2022-11-08T14:43:43.522Z,1.60
2022-11-08T14:46:16.422Z,1.67
2022-11-08T14:48:54.330Z,1.38
2022-11-08T14:51:21.150Z,2.00
2022-11-08T14:53:50.552Z,1.60
2022-11-08T14:56:26.129Z,1.13
2022-11-08T14:58:54.877Z,1.27
2022-11-08T15:01:24.460Z,1.20
2022-11-08T15:04:04.357Z,1.52
2022-11-08T15:06:39.234Z,1.40
2022-11-08T15:09:08.081Z,1.50
2022-11-08T15:11:38.661Z,1.33
2022-11-08T15:14:07.738Z,1.70
2022-11-08T15:16:42.778Z,2.20
2022-11-08T15:19:37.285Z,1.55
2022-11-08T15:22:23.468Z,1.40
2022-11-08T15:25:19.564Z,1.35
2022-11-08T15:27:52.103Z,1.55
2022-11-08T15:30:37.805Z,1.48
2022-11-08T15:33:21.164Z,1.50
2022-11-08T15:35:47.630Z,1.55
2022-11-08T15:38:31.526Z,1.83
2022-11-08T15:41:00.531Z,1.60
2022-11-08T15:43:29.895Z,1.42
2022-11-08T15:45:57.182Z,1.52
2022-11-08T15:48:26.788Z,1.30
2022-11-08T15:50:54.908Z,1.38
2022-11-08T15:53:21.332Z,1.38
2022-11-08T15:55:53.768Z,1.42
2022-11-08T15:58:28.485Z,1.67
2022-11-08T16:00:56.673Z,1.40
2022-11-08T16:03:23.446Z,1.90
2022-11-08T16:05:50.085Z,1.80
2022-11-08T16:08:20.249Z,1.48
2022-11-08T16:10:58.681Z,1.60
2022-11-08T16:13:31.443Z,1.83
2022-11-08T16:15:59.505Z,1.83
2022-11-08T16:18:26.995Z,1.92
2022-11-08T16:20:53.755Z,1.70
2022-11-08T16:23:20.095Z,1.60
2022-11-08T16:25:50.843Z,1.92
2022-11-08T16:30:51.421Z,1.80
2022-11-08T16:33:20.964Z,1.50
2022-11-08T16:35:48.045Z,1.60
2022-11-08T16:38:14.490Z,1.77
2022-11-08T16:40:42.715Z,2.10
2022-11-08T16:43:12.171Z,1.70
2022-11-08T16:46:03.705Z,1.60
2022-11-08T16:48:26.974Z,1.55
2022-11-08T16:51:00.370Z,1.98
2022-11-08T16:53:27.218Z,1.88
2022-11-08T16:55:53.748Z,1.73
2022-11-08T16:58:20.520Z,1.83
2022-11-08T17:00:47.861Z,2.30
2022-11-08T17:03:20.032Z,2.58
2022-11-08T17:05:47.102Z,3.00
2022-11-08T17:08:13.736Z,2.53
2022-11-08T17:10:40.533Z,2.92
2022-11-08T17:13:06.912Z,2.03
2022-11-08T17:15:33.441Z,2.75
2022-11-08T17:17:59.984Z,2.95
2022-11-08T17:20:27.031Z,2.30
2022-11-08T17:22:54.343Z,3.03
2022-11-08T17:25:22.995Z,1.85
2022-11-08T17:27:50.985Z,2.53
2022-11-08T17:30:20.247Z,1.83
2022-11-08T17:32:50.364Z,1.92
2022-11-08T17:35:16.778Z,1.98
2022-11-08T17:37:43.159Z,2.00
2022-11-08T17:40:10.227Z,1.95
2022-11-08T17:42:38.923Z,1.92
2022-11-08T17:45:10.463Z,2.03
2022-11-08T17:47:37.607Z,2.10
2022-11-08T17:50:05.286Z,2.20
2022-11-08T17:52:31.910Z,2.20
2022-11-08T17:54:58.330Z,2.05
2022-11-08T17:57:24.753Z,2.03
2022-11-08T17:59:51.181Z,2.40
2022-11-08T18:02:19.025Z,2.33
2022-11-08T18:04:45.568Z,2.13
2022-11-08T18:07:12.028Z,2.67
2022-11-08T18:09:38.701Z,2.05
2022-11-08T18:12:05.396Z,2.15
2022-11-08T18:14:31.791Z,2.50
2022-11-08T18:16:59.678Z,2.50
2022-11-08T18:19:26.117Z,2.40
2022-11-08T18:21:52.652Z,2.38
2022-11-08T18:24:19.306Z,1.92
2022-11-08T18:26:45.685Z,1.80
2022-11-08T18:29:12.286Z,2.45
2022-11-08T18:31:38.668Z,2.00
2022-11-08T18:34:05.125Z,1.92
2022-11-08T18:36:31.841Z,2.33
2022-11-08T18:39:02.617Z,1.95
2022-11-08T18:41:31.581Z,2.80
2022-11-08T18:43:59.544Z,2.30
2022-11-08T18:46:41.804Z,2.42
2022-11-08T18:49:09.862Z,2.92
2022-11-08T18:51:37.320Z,2.58
2022-11-08T18:54:03.716Z,2.13
2022-11-08T18:56:30.205Z,2.03
2022-11-08T19:01:49.187Z,2.80
2022-11-08T19:04:15.854Z,2.28
2022-11-08T19:06:42.353Z,2.30
2022-11-08T19:09:09.108Z,2.55
2022-11-08T19:11:36.418Z,2.05
2022-11-08T19:14:03.322Z,2.63
2022-11-08T19:16:29.927Z,2.33
2022-11-08T19:18:56.480Z,2.53
2022-11-08T19:21:25.167Z,2.55
2022-11-08T19:23:52.064Z,2.42
2022-11-08T19:26:24.028Z,3.03
2022-11-08T19:28:53.331Z,2.80
2022-11-08T19:31:21.840Z,2.55
2022-11-08T19:33:50.369Z,3.10
2022-11-08T19:36:19.828Z,2.33
2022-11-08T19:38:46.833Z,2.05
2022-11-08T19:41:15.339Z,2.13
2022-11-08T19:43:43.211Z,2.20
2022-11-08T19:46:31.460Z,2.88
2022-11-08T19:49:01.540Z,2.25
2022-11-08T19:51:30.555Z,1.88
2022-11-08T19:53:59.499Z,2.83
2022-11-08T19:56:50.162Z,2.83
2022-11-08T19:59:13.795Z,2.60
2022-11-08T20:01:40.893Z,2.55
2022-11-08T20:04:10.633Z,2.40
2022-11-08T20:06:37.438Z,2.00
2022-11-08T20:09:07.633Z,2.40
2022-11-08T20:11:36.588Z,2.22
2022-11-08T20:14:07.791Z,2.10
2022-11-08T20:16:39.462Z,2.13
2022-11-08T20:19:09.022Z,2.13
2022-11-08T20:21:38.618Z,2.22
2022-11-08T20:24:05.354Z,1.77
2022-11-08T20:26:32.397Z,1.98
2022-11-08T20:29:00.662Z,1.85
2022-11-08T20:31:28.495Z,2.50
2022-11-08T20:34:01.747Z,2.25
2022-11-08T20:36:35.115Z,2.58
2022-11-08T20:39:07.039Z,2.40
2022-11-08T20:41:35.483Z,2.22
2022-11-08T20:44:02.288Z,2.83
2022-11-08T20:46:29.538Z,2.15
2022-11-08T20:49:00.165Z,3.33
2022-11-08T20:51:27.750Z,3.92
2022-11-08T20:53:55.417Z,2.90
2022-11-08T20:56:23.191Z,2.78
2022-11-08T20:58:51.149Z,2.55
2022-11-08T21:01:23.092Z,2.60
2022-11-08T21:03:51.133Z,2.70
2022-11-08T21:06:20.476Z,2.58
2022-11-08T21:09:10.225Z,2.22
2022-11-08T21:11:35.325Z,2.05
2022-11-08T21:14:03.031Z,2.88
2022-11-08T21:16:35.113Z,2.63
2022-11-08T21:19:09.037Z,2.25
2022-11-08T21:21:35.563Z,2.25
2022-11-08T21:24:01.936Z,2.83
2022-11-08T21:26:28.546Z,2.65
2022-11-08T21:29:02.398Z,1.95
2022-11-08T21:31:29.598Z,2.90
2022-11-08T21:33:56.079Z,2.38
2022-11-08T21:36:26.511Z,3.17
2022-11-08T21:38:53.945Z,2.38
2022-11-08T21:41:20.372Z,2.53
2022-11-08T21:43:47.600Z,2.67
2022-11-08T21:46:25.937Z,3.03
2022-11-08T21:48:57.368Z,2.35
2022-11-08T21:51:24.744Z,2.90
2022-11-08T21:53:56.067Z,2.22
2022-11-08T21:56:29.154Z,2.45
2022-11-08T21:58:55.885Z,2.33
2022-11-08T22:01:27.184Z,2.45
2022-11-08T22:03:55.200Z,2.35
2022-11-08T22:06:22.654Z,2.42
2022-11-08T22:08:49.241Z,2.42
2022-11-08T22:11:15.824Z,2.47
2022-11-08T22:13:42.257Z,2.28
2022-11-08T22:16:08.667Z,2.88
2022-11-08T22:19:04.345Z,2.00
2022-11-08T22:21:40.429Z,1.95
2022-11-08T22:24:20.255Z,2.03
2022-11-08T22:26:48.673Z,2.05
2022-11-08T22:29:18.241Z,1.83
2022-11-08T22:31:45.754Z,2.20
2022-11-08T22:34:12.784Z,2.13
2022-11-08T22:36:44.805Z,2.03
2022-11-08T22:39:16.965Z,2.00
2022-11-08T22:41:44.683Z,2.58
2022-11-08T22:44:13.014Z,1.88
2022-11-08T22:46:43.560Z,2.25
2022-11-08T22:49:11.463Z,2.05
2022-11-08T22:51:39.075Z,2.08
2022-11-08T22:54:05.633Z,1.95
2022-11-08T22:56:32.427Z,2.38
2022-11-08T22:58:58.985Z,1.55
2022-11-08T23:01:25.445Z,1.88
2022-11-08T23:03:51.801Z,2.20
2022-11-08T23:06:18.337Z,2.45
2022-11-08T23:08:46.641Z,2.20
2022-11-08T23:11:48.668Z,2.53
2022-11-08T23:14:37.200Z,1.67
2022-11-08T23:17:05.436Z,1.92
2022-11-08T23:19:50.437Z,2.20
2022-11-08T23:22:36.118Z,2.03
2022-11-08T23:25:02.557Z,2.10
2022-11-08T23:27:50.772Z,1.88
2022-11-08T23:30:36.926Z,1.98
2022-11-08T23:33:05.398Z,2.42
2022-11-08T23:35:31.802Z,2.00
2022-11-08T23:37:58.217Z,2.10
2022-11-08T23:40:43.496Z,2.15
2022-11-08T23:43:37.087Z,1.73
2022-11-08T23:46:07.820Z,2.40
2022-11-08T23:48:35.278Z,1.58
2022-11-08T23:51:01.705Z,1.88
2022-11-08T23:53:28.127Z,1.85
2022-11-08T23:55:56.347Z,2.40
2022-11-08T23:58:23.242Z,1.80
